sensor_id;sensor_type;location;lat;lon;timestamp;temperature;humidity
15036;DHT22;7615;48.574;13.474;2023-08-24T04:54:10;18.80;99.90
15036;DHT22;7615;48.574;13.474;2023-08-24T04:56:40;18.90;99.90
15036;DHT22;7615;48.574;13.474;2023-08-24T04:59:07;18.90;99.90
15036;DHT22;7615;48.574;13.474;2023-08-24T05:01:48;18.90;99.90
15036;DHT22;7615;48.574;13.474;2023-08-24T05:04:18;19.00;99.90
15036;DHT22;7615;48.574;13.474;2023-08-24T05:40:28;18.90;99.90
15036;DHT22;7615;48.574;13.474;2023-08-24T05:43:23;19.00;99.90
15036;DHT22;7615;48.574;13.474;2023-08-24T05:45:59;18.90;99.90
15036;DHT22;7615;48.574;13.474;2023-08-24T05:48:58;19.10;99.90
15036;DHT22;7615;48.574;13.474;2023-08-24T05:51:27;19.10;99.90
15036;DHT22;7615;48.574;13.474;2023-08-24T05:54:01;17.70;99.90
15036;DHT22;7615;48.574;13.474;2023-08-24T05:56:31;19.40;99.90
15036;DHT22;7615;48.574;13.474;2023-08-24T05:58:58;19.40;99.90
15036;DHT22;7615;48.574;13.474;2023-08-24T06:01:25;19.70;99.90
15036;DHT22;7615;48.574;13.474;2023-08-24T06:03:52;19.60;99.90
15036;DHT22;7615;48.574;13.474;2023-08-24T06:06:22;20.50;99.90
15036;DHT22;7615;48.574;13.474;2023-08-24T06:08:49;19.60;99.90
15036;DHT22;7615;48.574;13.474;2023-08-24T06:11:16;19.70;99.90
15036;DHT22;7615;48.574;13.474;2023-08-24T06:13:45;19.70;99.90
15036;DHT22;7615;48.574;13.474;2023-08-24T06:16:12;19.70;99.90
15036;DHT22;7615;48.574;13.474;2023-08-24T06:18:39;19.80;99.90
15036;DHT22;7615;48.574;13.474;2023-08-24T06:21:06;19.80;99.90
15036;DHT22;7615;48.574;13.474;2023-08-24T06:23:33;19.80;99.90
15036;DHT22;7615;48.574;13.474;2023-08-24T06:26:00;19.70;99.90
15036;DHT22;7615;48.574;13.474;2023-08-24T06:28:27;19.80;99.90
15036;DHT22;7615;48.574;13.474;2023-08-24T06:30:56;19.90;99.90
15036;DHT22;7615;48.574;13.474;2023-08-24T06:48:13;20.00;99.90
15036;DHT22;7615;48.574;13.474;2023-08-24T06:50:40;20.70;99.90
15036;DHT22;7615;48.574;13.474;2023-08-24T06:53:07;20.80;99.90
15036;DHT22;7615;48.574;13.474;2023-08-24T06:55:34;20.70;99.90
15036;DHT22;7615;48.574;13.474;2023-08-24T07:05:27;20.70;99.90
15036;DHT22;7615;48.574;13.474;2023-08-24T07:07:54;21.10;99.90
15036;DHT22;7615;48.574;13.474;2023-08-24T07:10:22;21.20;99.90
15036;DHT22;7615;48.574;13.474;2023-08-24T07:15:16;21.30;99.90
15036;DHT22;7615;48.574;13.474;2023-08-24T07:22:40;21.60;99.90
15036;DHT22;7615;48.574;13.474;2023-08-24T07:25:08;21.80;99.90
15036;DHT22;7615;48.574;13.474;2023-08-24T07:27:37;20.90;99.90
15036;DHT22;7615;48.574;13.474;2023-08-24T07:30:04;21.90;99.90
15036;DHT22;7615;48.574;13.474;2023-08-24T07:32:33;21.90;99.90
15036;DHT22;7615;48.574;13.474;2023-08-24T07:35:00;21.90;99.90
15036;DHT22;7615;48.574;13.474;2023-08-24T07:54:38;22.90;99.90
15036;DHT22;7615;48.574;13.474;2023-08-24T07:57:07;23.00;99.90
15036;DHT22;7615;48.574;13.474;2023-08-24T07:59:34;23.10;99.90
15036;DHT22;7615;48.574;13.474;2023-08-24T08:04:28;23.20;99.90
15036;DHT22;7615;48.574;13.474;2023-08-24T08:06:55;23.40;99.90
15036;DHT22;7615;48.574;13.474;2023-08-24T08:09:22;23.50;99.90
15036;DHT22;7615;48.574;13.474;2023-08-24T08:11:49;23.60;99.90
15036;DHT22;7615;48.574;13.474;2023-08-24T08:53:41;25.30;99.90
15036;DHT22;7615;48.574;13.474;2023-08-24T08:56:08;25.60;99.90
15036;DHT22;7615;48.574;13.474;2023-08-24T08:58:36;25.70;99.90
15036;DHT22;7615;48.574;13.474;2023-08-24T09:01:03;25.80;99.90
15036;DHT22;7615;48.574;13.474;2023-08-24T09:06:00;25.90;99.90
15036;DHT22;7615;48.574;13.474;2023-08-24T09:08:27;25.90;99.90
15036;DHT22;7615;48.574;13.474;2023-08-24T09:10:54;25.90;99.90
15036;DHT22;7615;48.574;13.474;2023-08-24T09:13:21;25.70;99.90
15036;DHT22;7615;48.574;13.474;2023-08-24T09:15:51;25.80;99.90
15036;DHT22;7615;48.574;13.474;2023-08-24T09:18:18;25.90;99.90
15036;DHT22;7615;48.574;13.474;2023-08-24T18:39:17;25.00;99.90
15036;DHT22;7615;48.574;13.474;2023-08-24T18:41:44;24.70;99.90
15036;DHT22;7615;48.574;13.474;2023-08-24T18:44:13;24.70;99.90
15036;DHT22;7615;48.574;13.474;2023-08-24T18:46:40;24.70;99.90
15036;DHT22;7615;48.574;13.474;2023-08-24T18:49:06;24.70;99.90
15036;DHT22;7615;48.574;13.474;2023-08-24T18:56:30;24.40;99.90
15036;DHT22;7615;48.574;13.474;2023-08-24T18:58:57;24.30;99.90
15036;DHT22;7615;48.574;13.474;2023-08-24T19:01:24;24.30;99.90
15036;DHT22;7615;48.574;13.474;2023-08-24T19:03:51;24.30;99.90
15036;DHT22;7615;48.574;13.474;2023-08-24T19:06:18;24.20;99.90
15036;DHT22;7615;48.574;13.474;2023-08-24T19:21:09;24.10;99.90
15036;DHT22;7615;48.574;13.474;2023-08-24T19:23:37;23.80;99.90
15036;DHT22;7615;48.574;13.474;2023-08-24T19:26:06;23.70;99.90
15036;DHT22;7615;48.574;13.474;2023-08-24T19:28:33;23.70;99.90
15036;DHT22;7615;48.574;13.474;2023-08-24T21:33:07;23.60;99.90
15036;DHT22;7615;48.574;13.474;2023-08-24T21:35:34;22.60;99.90
15036;DHT22;7615;48.574;13.474;2023-08-24T21:38:01;22.50;99.90
15036;DHT22;7615;48.574;13.474;2023-08-24T21:40:28;22.60;99.90
15036;DHT22;7615;48.574;13.474;2023-08-24T21:42:55;22.60;99.90
15036;DHT22;7615;48.574;13.474;2023-08-24T21:45:24;22.60;99.90
15036;DHT22;7615;48.574;13.474;2023-08-24T21:50:18;22.50;99.90
15036;DHT22;7615;48.574;13.474;2023-08-24T21:52:46;22.50;99.90
15036;DHT22;7615;48.574;13.474;2023-08-24T21:55:13;22.40;99.90
15036;DHT22;7615;48.574;13.474;2023-08-24T21:57:40;22.40;99.90
15036;DHT22;7615;48.574;13.474;2023-08-24T22:00:09;22.30;99.90
15036;DHT22;7615;48.574;13.474;2023-08-24T22:02:40;22.40;99.90
15036;DHT22;7615;48.574;13.474;2023-08-24T22:05:08;22.40;99.90
15036;DHT22;7615;48.574;13.474;2023-08-24T22:07:35;22.30;99.90
15036;DHT22;7615;48.574;13.474;2023-08-24T22:10:03;22.50;99.90
15036;DHT22;7615;48.574;13.474;2023-08-24T22:12:30;22.80;99.90
15036;DHT22;7615;48.574;13.474;2023-08-24T22:24:50;23.00;99.90
15036;DHT22;7615;48.574;13.474;2023-08-24T22:27:17;23.00;99.90
15036;DHT22;7615;48.574;13.474;2023-08-24T22:29:50;22.70;99.90
15036;DHT22;7615;48.574;13.474;2023-08-24T22:34:45;21.30;99.90
15036;DHT22;7615;48.574;13.474;2023-08-24T22:37:14;21.20;99.90
15036;DHT22;7615;48.574;13.474;2023-08-24T22:40:06;21.20;99.90
15036;DHT22;7615;48.574;13.474;2023-08-24T22:51:37;21.20;99.90
15036;DHT22;7615;48.574;13.474;2023-08-24T22:54:10;21.30;99.90
15036;DHT22;7615;48.574;13.474;2023-08-24T22:56:37;21.30;99.90
15036;DHT22;7615;48.574;13.474;2023-08-24T22:59:04;21.40;99.90
15036;DHT22;7615;48.574;13.474;2023-08-24T23:01:34;21.40;99.90
15036;DHT22;7615;48.574;13.474;2023-08-24T23:04:02;21.30;99.90
15036;DHT22;7615;48.574;13.474;2023-08-24T23:06:45;21.20;99.90
15036;DHT22;7615;48.574;13.474;2023-08-24T23:09:15;21.00;99.90
15036;DHT22;7615;48.574;13.474;2023-08-24T23:11:45;20.90;99.90
15036;DHT22;7615;48.574;13.474;2023-08-24T23:14:12;20.80;99.90
15036;DHT22;7615;48.574;13.474;2023-08-24T23:16:39;20.90;99.90
15036;DHT22;7615;48.574;13.474;2023-08-24T23:21:41;20.80;99.90
15036;DHT22;7615;48.574;13.474;2023-08-24T23:26:46;20.70;99.90
15036;DHT22;7615;48.574;13.474;2023-08-24T23:29:14;20.70;99.90
15036;DHT22;7615;48.574;13.474;2023-08-24T23:31:42;20.70;99.90
15036;DHT22;7615;48.574;13.474;2023-08-24T23:34:09;20.60;99.90
15036;DHT22;7615;48.574;13.474;2023-08-24T23:36:36;20.60;99.90
15036;DHT22;7615;48.574;13.474;2023-08-24T23:39:03;20.60;99.90
15036;DHT22;7615;48.574;13.474;2023-08-24T23:41:32;20.70;99.90
15036;DHT22;7615;48.574;13.474;2023-08-24T23:44:01;20.60;99.90
15036;DHT22;7615;48.574;13.474;2023-08-24T23:46:28;20.60;99.90
15036;DHT22;7615;48.574;13.474;2023-08-24T23:48:56;20.60;99.90
15036;DHT22;7615;48.574;13.474;2023-08-24T23:51:23;20.60;99.90
15036;DHT22;7615;48.574;13.474;2023-08-24T23:53:50;20.70;99.90
15036;DHT22;7615;48.574;13.474;2023-08-24T23:56:17;20.80;99.90
15036;DHT22;7615;48.574;13.474;2023-08-24T23:58:46;20.80;99.90
